createdAt,value
2022-10-05T00:02:00.953Z,2.17
2022-10-05T00:07:24.730Z,1.90
2022-10-05T00:12:29.781Z,1.73
2022-10-05T00:17:32.507Z,1.75
2022-10-05T00:22:36.104Z,1.98
2022-10-05T00:27:39.636Z,1.52
2022-10-05T00:32:43.142Z,1.90
2022-10-05T00:37:51.281Z,1.80
2022-10-05T00:43:19.966Z,2.10
2022-10-05T00:48:32.760Z,1.90
2022-10-05T00:53:47.345Z,2.30
2022-10-05T00:59:15.725Z,2.47
2022-10-05T01:04:42.587Z,1.80
2022-10-05T01:10:06.672Z,2.20
2022-10-05T01:15:15.818Z,2.35
2022-10-05T01:20:45.653Z,1.90
2022-10-05T01:26:07.370Z,2.03
2022-10-05T01:31:27.069Z,2.15
2022-10-05T01:36:49.900Z,2.20
2022-10-05T01:42:11.326Z,2.20
2022-10-05T01:47:42.640Z,2.17
2022-10-05T01:52:56.533Z,2.10
2022-10-05T01:58:01.993Z,2.45
2022-10-05T02:03:21.237Z,2.10
2022-10-05T02:08:42.391Z,2.38
2022-10-05T02:13:59.113Z,2.27
2022-10-05T02:19:22.232Z,2.47
2022-10-05T02:24:32.570Z,2.33
2022-10-05T02:29:40.066Z,2.10
2022-10-05T02:34:44.477Z,2.63
2022-10-05T02:40:18.737Z,2.20
2022-10-05T02:46:03.066Z,2.15
2022-10-05T02:51:18.402Z,2.42
2022-10-05T02:56:45.358Z,2.03
2022-10-05T03:01:52.961Z,2.35
2022-10-05T03:07:19.049Z,2.15
2022-10-05T03:12:50.573Z,2.20
2022-10-05T03:18:13.625Z,2.22
2022-10-05T03:23:43.352Z,2.15
2022-10-05T03:29:20.124Z,2.05
2022-10-05T03:34:31.271Z,2.10
2022-10-05T03:39:44.981Z,1.75
2022-10-05T03:45:23.064Z,1.80
2022-10-05T03:50:43.316Z,1.95
2022-10-05T03:56:33.493Z,1.88
2022-10-05T04:01:45.809Z,1.60
2022-10-05T04:06:50.885Z,1.98
2022-10-05T04:12:20.411Z,1.88
2022-10-05T04:18:05.741Z,2.45
2022-10-05T04:23:21.454Z,2.25
2022-10-05T04:28:33.716Z,2.55
2022-10-05T04:33:38.003Z,2.22
2022-10-05T04:38:49.178Z,2.30
2022-10-05T04:44:07.067Z,2.28
2022-10-05T04:49:51.701Z,2.33
2022-10-05T04:55:13.439Z,2.35
2022-10-05T05:00:25.371Z,2.50
2022-10-05T05:06:15.419Z,3.70
2022-10-05T05:11:15.904Z,2.60
2022-10-05T05:16:37.462Z,2.42
2022-10-05T05:22:07.373Z,1.73
2022-10-05T05:27:48.377Z,1.55
2022-10-05T05:33:10.343Z,1.30
2022-10-05T05:38:24.751Z,1.60
2022-10-05T05:43:47.503Z,1.20
2022-10-05T05:48:51.873Z,1.10
2022-10-05T05:54:10.163Z,0.90
2022-10-05T05:59:20.484Z,0.80
2022-10-05T06:04:46.653Z,2.00
2022-10-05T06:09:57.972Z,8.20
2022-10-05T06:15:24.761Z,1.90
2022-10-05T06:20:45.764Z,0.70
2022-10-05T06:25:55.028Z,0.47
2022-10-05T06:31:05.148Z,0.55
2022-10-05T06:36:34.739Z,0.80
2022-10-05T06:41:47.817Z,0.70
2022-10-05T06:47:23.346Z,0.75
2022-10-05T06:52:53.892Z,1.00
2022-10-05T06:58:15.886Z,0.93
2022-10-05T07:03:34.318Z,0.85
2022-10-05T07:08:58.860Z,1.30
2022-10-05T07:14:07.903Z,0.98
2022-10-05T07:19:22.592Z,1.00
2022-10-05T07:24:41.977Z,0.85
2022-10-05T07:29:44.642Z,0.60
2022-10-05T07:35:04.226Z,0.60
2022-10-05T07:40:42.157Z,0.60
2022-10-05T07:45:50.902Z,0.70
2022-10-05T07:51:03.626Z,0.57
2022-10-05T07:56:21.801Z,5.25
2022-10-05T08:01:32.102Z,2.80
2022-10-05T08:06:52.504Z,0.70
2022-10-05T08:12:14.849Z,0.57
2022-10-05T08:17:25.615Z,0.40
2022-10-05T08:22:41.098Z,0.40
2022-10-05T08:27:48.329Z,0.40
2022-10-05T08:33:00.067Z,0.77
2022-10-05T08:38:27.790Z,0.28
2022-10-05T08:43:54.946Z,0.45
2022-10-05T08:49:44.827Z,0.57
2022-10-05T08:54:50.924Z,0.63
2022-10-05T09:00:11.929Z,0.52
2022-10-05T09:05:23.745Z,0.50
2022-10-05T09:10:32.188Z,2.90
2022-10-05T09:16:08.472Z,2.17
2022-10-05T09:21:43.269Z,0.60
2022-10-05T09:26:45.853Z,0.40
2022-10-05T09:32:16.376Z,0.40
2022-10-05T09:37:28.267Z,0.45
2022-10-05T09:42:52.357Z,0.60
2022-10-05T09:47:59.907Z,0.50
2022-10-05T09:53:27.378Z,0.30
2022-10-05T09:58:55.973Z,0.38
2022-10-05T10:04:25.404Z,0.40
2022-10-05T10:09:38.810Z,0.65
2022-10-05T10:15:18.857Z,0.45
2022-10-05T10:20:40.120Z,0.40
2022-10-05T10:25:57.673Z,0.50
2022-10-05T10:31:47.775Z,0.60
2022-10-05T10:37:17.534Z,0.52
2022-10-05T10:42:51.030Z,0.28
2022-10-05T10:48:00.428Z,0.30
2022-10-05T10:53:31.087Z,0.30
2022-10-05T10:58:48.697Z,0.50
2022-10-05T11:04:09.869Z,0.30
2022-10-05T11:09:54.169Z,0.50
2022-10-05T11:15:11.799Z,0.60
2022-10-05T11:20:38.937Z,0.40
2022-10-05T11:25:58.197Z,0.50
2022-10-05T11:31:25.306Z,0.52
2022-10-05T11:36:53.564Z,0.50
2022-10-05T11:42:17.753Z,0.60
2022-10-05T11:47:52.763Z,0.60
2022-10-05T11:53:24.496Z,0.50
2022-10-05T11:58:33.881Z,0.68
2022-10-05T12:03:45.361Z,0.38
2022-10-05T12:09:04.849Z,0.30
2022-10-05T12:14:20.445Z,0.50
2022-10-05T12:19:31.767Z,0.60
2022-10-05T12:24:37.167Z,0.30
2022-10-05T12:29:46.933Z,0.40
2022-10-05T12:35:01.927Z,0.45
2022-10-05T12:40:23.669Z,0.50
2022-10-05T12:45:37.532Z,0.60
2022-10-05T12:50:50.242Z,0.55
2022-10-05T12:56:29.911Z,0.50
2022-10-05T13:01:35.576Z,0.52
2022-10-05T13:07:04.325Z,0.68
2022-10-05T13:12:26.993Z,0.50
2022-10-05T13:17:33.103Z,0.60
2022-10-05T13:22:42.549Z,0.50
2022-10-05T13:28:16.807Z,0.30
2022-10-05T13:33:26.824Z,0.40
2022-10-05T13:38:43.508Z,0.40
2022-10-05T13:44:04.472Z,0.50
2022-10-05T13:49:06.945Z,0.63
2022-10-05T13:54:28.847Z,0.68
2022-10-05T13:59:57.687Z,0.65
2022-10-05T14:05:02.346Z,0.43
2022-10-05T14:10:13.168Z,0.50
2022-10-05T14:15:39.830Z,0.60
2022-10-05T14:26:27.497Z,0.50
2022-10-05T14:31:36.466Z,0.60
2022-10-05T14:36:44.161Z,0.88
2022-10-05T14:41:50.665Z,1.50
2022-10-05T14:46:56.798Z,0.82
2022-10-05T14:51:59.726Z,1.30
2022-10-05T14:57:08.206Z,0.80
2022-10-05T15:02:29.713Z,0.77
2022-10-05T15:07:41.326Z,0.55
2022-10-05T15:12:49.791Z,0.93
2022-10-05T15:17:59.705Z,0.55
2022-10-05T15:23:31.849Z,0.60
2022-10-05T15:33:55.735Z,0.90
2022-10-05T15:39:17.962Z,1.42
2022-10-05T15:44:29.211Z,0.77
2022-10-05T15:49:50.464Z,0.73
2022-10-05T15:55:20.875Z,3.27
2022-10-05T16:00:27.894Z,1.63
2022-10-05T16:06:18.588Z,1.73
2022-10-05T16:11:36.928Z,1.73
2022-10-05T16:17:10.196Z,1.50
2022-10-05T16:22:33.543Z,0.95
2022-10-05T16:27:48.501Z,1.00
2022-10-05T16:33:20.581Z,1.08
2022-10-05T16:38:42.657Z,1.00
2022-10-05T16:49:17.993Z,0.95
2022-10-05T16:54:47.748Z,1.40
2022-10-05T17:00:22.419Z,1.10
2022-10-05T17:06:10.558Z,1.33
2022-10-05T17:11:22.374Z,1.08
2022-10-05T17:16:45.612Z,1.10
2022-10-05T17:22:07.884Z,0.88
2022-10-05T17:27:26.757Z,1.00
2022-10-05T17:32:54.066Z,0.90
2022-10-05T17:38:30.764Z,0.95
2022-10-05T17:43:34.300Z,0.98
2022-10-05T17:49:15.723Z,0.90
2022-10-05T17:54:41.236Z,0.90
2022-10-05T17:59:46.839Z,0.90
2022-10-05T18:05:07.233Z,1.05
2022-10-05T18:10:10.056Z,0.90
2022-10-05T18:15:24.209Z,1.20
2022-10-05T18:20:27.105Z,1.35
2022-10-05T18:25:46.048Z,1.40
2022-10-05T18:31:10.217Z,2.28
2022-10-05T18:36:27.285Z,1.33
2022-10-05T18:41:57.777Z,1.42
2022-10-05T18:47:32.463Z,1.17
2022-10-05T18:52:41.411Z,1.17
2022-10-05T18:57:55.971Z,1.70
2022-10-05T19:03:18.378Z,1.70
2022-10-05T19:08:45.575Z,1.40
2022-10-05T19:14:01.110Z,1.27
2022-10-05T19:19:42.778Z,1.42
2022-10-05T19:24:53.878Z,1.57
2022-10-05T19:30:20.780Z,1.50
2022-10-05T19:35:36.145Z,1.48
2022-10-05T19:40:56.710Z,1.60
2022-10-05T19:46:19.023Z,1.42
2022-10-05T19:51:29.618Z,1.60
2022-10-05T19:56:34.177Z,1.80
2022-10-05T20:01:41.199Z,1.85
2022-10-05T20:06:43.884Z,1.70
2022-10-05T20:11:51.172Z,1.80
2022-10-05T20:17:33.141Z,1.88
2022-10-05T20:22:38.079Z,1.90
2022-10-05T20:27:41.399Z,2.00
2022-10-05T20:32:47.217Z,1.70
2022-10-05T20:37:52.806Z,1.50
2022-10-05T20:42:56.384Z,1.80
2022-10-05T20:47:59.223Z,1.55
2022-10-05T20:53:01.898Z,1.42
2022-10-05T20:58:04.550Z,1.48
2022-10-05T21:03:09.802Z,2.13
2022-10-05T21:08:12.419Z,1.65
2022-10-05T21:13:15.100Z,1.90
2022-10-05T21:18:20.376Z,1.90
2022-10-05T21:23:23.065Z,1.90
2022-10-05T21:28:26.103Z,2.00
2022-10-05T21:33:29.239Z,2.35
2022-10-05T21:38:32.121Z,1.75
2022-10-05T21:43:35.353Z,1.80
2022-10-05T21:48:39.773Z,2.13
2022-10-05T21:53:48.873Z,2.17
2022-10-05T21:58:52.309Z,1.92
2022-10-05T22:03:54.961Z,2.15
2022-10-05T22:08:58.036Z,2.47
2022-10-05T22:14:03.648Z,2.22
2022-10-05T22:19:14.628Z,2.20
2022-10-05T22:24:17.209Z,2.05
2022-10-05T22:29:20.827Z,2.33
2022-10-05T22:34:23.604Z,1.85
2022-10-05T22:39:26.174Z,2.00
2022-10-05T22:44:28.729Z,2.15
2022-10-05T22:49:31.425Z,2.20
2022-10-05T22:54:37.209Z,2.47
2022-10-05T22:59:40.179Z,1.85
2022-10-05T23:04:42.806Z,1.67
2022-10-05T23:09:45.355Z,1.63
2022-10-05T23:14:48.053Z,1.70
2022-10-05T23:19:51.831Z,1.92
2022-10-05T23:24:55.103Z,1.60
2022-10-05T23:29:57.713Z,2.00
2022-10-05T23:35:00.381Z,1.90
2022-10-05T23:40:03.387Z,2.05
2022-10-05T23:45:06.978Z,1.88
2022-10-05T23:50:09.954Z,1.65
2022-10-05T23:55:12.506Z,1.65
